Scarborough, United Kingdom
Current Conditions -  °F | °C
As of 8:50 AM on Monday 20 Oct 2014 (Local Time) from EGXV Reporting Station
Broken Clouds Broken Clouds  
Wind Chill: 11°   Ceiling: 6000
Heat Index: 11°   Visibility: 6mi
Dew Point: 10°   Wind: 12mph
Humidity: 94%   Direction: 230°SW
Pressure: 29.88"   Gusts: NA
Location:  54.28°N, 0.4°W
Report Text: EGXV 200750Z AUTO 23010KT 9999 BKN060/// BKN140/// 11/10 Q1012
Loading
Personal Weather Stations






























Interactive Weather Map
Tropical Storm Tracking
New forecast layout! Learn more

10-Day Weather Forecast

Advertisements
Track Severe Weather on mobile